sensor_id;sensor_type;location;lat;lon;timestamp;P1;durP1;ratioP1;P2;durP2;ratioP2
35917;SDS011;22011;59.912;30.300;2023-03-24T00:00:57;11.85;;;3.45;;
35917;SDS011;22011;59.912;30.300;2023-03-24T00:03:26;9.48;;;3.35;;
35917;SDS011;22011;59.912;30.300;2023-03-24T00:05:55;13.40;;;3.40;;
35917;SDS011;22011;59.912;30.300;2023-03-24T00:08:26;13.35;;;3.42;;
35917;SDS011;22011;59.912;30.300;2023-03-24T00:10:58;13.32;;;3.90;;
35917;SDS011;22011;59.912;30.300;2023-03-24T00:13:28;10.38;;;3.63;;
35917;SDS011;22011;59.912;30.300;2023-03-24T00:15:56;9.43;;;3.45;;
35917;SDS011;22011;59.912;30.300;2023-03-24T00:18:25;8.63;;;3.03;;
35917;SDS011;22011;59.912;30.300;2023-03-24T00:20:52;10.18;;;3.47;;
35917;SDS011;22011;59.912;30.300;2023-03-24T00:23:24;11.52;;;3.90;;
35917;SDS011;22011;59.912;30.300;2023-03-24T00:26:00;11.30;;;3.90;;
35917;SDS011;22011;59.912;30.300;2023-03-24T00:28:30;7.75;;;3.22;;
35917;SDS011;22011;59.912;30.300;2023-03-24T00:30:59;28.58;;;4.07;;
35917;SDS011;22011;59.912;30.300;2023-03-24T00:33:28;15.43;;;3.13;;
35917;SDS011;22011;59.912;30.300;2023-03-24T00:35:57;9.23;;;2.40;;
35917;SDS011;22011;59.912;30.300;2023-03-24T00:38:25;7.40;;;2.30;;
35917;SDS011;22011;59.912;30.300;2023-03-24T00:40:53;8.57;;;2.70;;
35917;SDS011;22011;59.912;30.300;2023-03-24T00:43:23;13.25;;;3.00;;
35917;SDS011;22011;59.912;30.300;2023-03-24T00:45:56;9.43;;;2.78;;
35917;SDS011;22011;59.912;30.300;2023-03-24T00:48:27;10.38;;;2.83;;
35917;SDS011;22011;59.912;30.300;2023-03-24T00:50:55;6.85;;;2.83;;
35917;SDS011;22011;59.912;30.300;2023-03-24T00:53:24;7.43;;;2.72;;
35917;SDS011;22011;59.912;30.300;2023-03-24T00:58:23;7.88;;;3.53;;
35917;SDS011;22011;59.912;30.300;2023-03-24T01:00:55;6.35;;;3.20;;
35917;SDS011;22011;59.912;30.300;2023-03-24T01:03:23;9.38;;;4.05;;
35917;SDS011;22011;59.912;30.300;2023-03-24T01:05:52;8.93;;;4.38;;
35917;SDS011;22011;59.912;30.300;2023-03-24T01:08:22;9.02;;;4.72;;
35917;SDS011;22011;59.912;30.300;2023-03-24T01:10:50;10.35;;;4.82;;
35917;SDS011;22011;59.912;30.300;2023-03-24T01:13:19;10.40;;;4.80;;
35917;SDS011;22011;59.912;30.300;2023-03-24T01:15:49;17.00;;;4.72;;
35917;SDS011;22011;59.912;30.300;2023-03-24T01:18:17;12.52;;;4.78;;
35917;SDS011;22011;59.912;30.300;2023-03-24T01:20:45;12.75;;;5.20;;
35917;SDS011;22011;59.912;30.300;2023-03-24T01:23:15;9.20;;;4.87;;
35917;SDS011;22011;59.912;30.300;2023-03-24T01:25:44;9.90;;;5.63;;
35917;SDS011;22011;59.912;30.300;2023-03-24T01:28:13;13.30;;;5.55;;
35917;SDS011;22011;59.912;30.300;2023-03-24T01:33:12;14.43;;;5.43;;
35917;SDS011;22011;59.912;30.300;2023-03-24T01:35:40;14.48;;;6.22;;
35917;SDS011;22011;59.912;30.300;2023-03-24T01:38:08;15.25;;;5.93;;
35917;SDS011;22011;59.912;30.300;2023-03-24T01:40:38;10.18;;;6.30;;
35917;SDS011;22011;59.912;30.300;2023-03-24T01:43:12;13.27;;;5.85;;
35917;SDS011;22011;59.912;30.300;2023-03-24T01:45:50;16.45;;;7.22;;
35917;SDS011;22011;59.912;30.300;2023-03-24T01:48:26;12.73;;;6.03;;
35917;SDS011;22011;59.912;30.300;2023-03-24T01:50:59;11.50;;;5.00;;
35917;SDS011;22011;59.912;30.300;2023-03-24T01:53:29;11.20;;;5.85;;
35917;SDS011;22011;59.912;30.300;2023-03-24T01:58:32;10.25;;;5.00;;
35917;SDS011;22011;59.912;30.300;2023-03-24T02:01:25;13.90;;;6.10;;
35917;SDS011;22011;59.912;30.300;2023-03-24T02:04:15;12.68;;;5.45;;
35917;SDS011;22011;59.912;30.300;2023-03-24T02:06:43;7.40;;;5.43;;
35917;SDS011;22011;59.912;30.300;2023-03-24T02:09:12;14.60;;;6.07;;
35917;SDS011;22011;59.912;30.300;2023-03-24T02:11:40;10.50;;;6.32;;
35917;SDS011;22011;59.912;30.300;2023-03-24T02:14:09;13.35;;;7.05;;
35917;SDS011;22011;59.912;30.300;2023-03-24T02:16:57;13.45;;;7.00;;
35917;SDS011;22011;59.912;30.300;2023-03-24T02:25:49;15.50;;;7.20;;
35917;SDS011;22011;59.912;30.300;2023-03-24T02:28:39;12.40;;;7.32;;
35917;SDS011;22011;59.912;30.300;2023-03-24T02:31:25;15.40;;;8.20;;
35917;SDS011;22011;59.912;30.300;2023-03-24T02:34:19;14.75;;;7.43;;
35917;SDS011;22011;59.912;30.300;2023-03-24T02:40:13;14.85;;;6.40;;
35917;SDS011;22011;59.912;30.300;2023-03-24T02:45:24;11.25;;;5.82;;
35917;SDS011;22011;59.912;30.300;2023-03-24T02:48:00;15.90;;;6.32;;
35917;SDS011;22011;59.912;30.300;2023-03-24T02:50:38;10.80;;;6.32;;
35917;SDS011;22011;59.912;30.300;2023-03-24T02:53:12;16.77;;;6.55;;
35917;SDS011;22011;59.912;30.300;2023-03-24T02:56:06;11.63;;;7.40;;
35917;SDS011;22011;59.912;30.300;2023-03-24T02:58:39;16.65;;;7.50;;
35917;SDS011;22011;59.912;30.300;2023-03-24T03:01:11;12.35;;;6.25;;
35917;SDS011;22011;59.912;30.300;2023-03-24T03:04:19;17.65;;;8.80;;
35917;SDS011;22011;59.912;30.300;2023-03-24T03:06:52;20.88;;;11.18;;
35917;SDS011;22011;59.912;30.300;2023-03-24T03:09:25;26.27;;;12.23;;
35917;SDS011;22011;59.912;30.300;2023-03-24T03:11:56;26.13;;;12.02;;
35917;SDS011;22011;59.912;30.300;2023-03-24T03:14:28;26.10;;;13.73;;
35917;SDS011;22011;59.912;30.300;2023-03-24T03:17:00;22.27;;;14.10;;
35917;SDS011;22011;59.912;30.300;2023-03-24T03:19:33;30.55;;;14.73;;
35917;SDS011;22011;59.912;30.300;2023-03-24T03:22:05;19.88;;;12.60;;
35917;SDS011;22011;59.912;30.300;2023-03-24T03:24:39;23.42;;;12.75;;
35917;SDS011;22011;59.912;30.300;2023-03-24T03:27:10;22.67;;;11.73;;
35917;SDS011;22011;59.912;30.300;2023-03-24T03:29:44;25.05;;;13.07;;
35917;SDS011;22011;59.912;30.300;2023-03-24T03:32:17;27.38;;;13.77;;
35917;SDS011;22011;59.912;30.300;2023-03-24T03:34:51;26.40;;;13.20;;
35917;SDS011;22011;59.912;30.300;2023-03-24T03:37:26;27.00;;;13.13;;
35917;SDS011;22011;59.912;30.300;2023-03-24T03:39:59;22.58;;;12.55;;
35917;SDS011;22011;59.912;30.300;2023-03-24T03:42:33;28.42;;;15.73;;
35917;SDS011;22011;59.912;30.300;2023-03-24T03:45:01;35.67;;;19.70;;
35917;SDS011;22011;59.912;30.300;2023-03-24T03:47:30;39.13;;;20.85;;
35917;SDS011;22011;59.912;30.300;2023-03-24T03:49:57;36.35;;;19.67;;
35917;SDS011;22011;59.912;30.300;2023-03-24T03:52:25;44.60;;;20.75;;
35917;SDS011;22011;59.912;30.300;2023-03-24T03:54:53;44.50;;;21.02;;
35917;SDS011;22011;59.912;30.300;2023-03-24T03:57:22;37.08;;;19.42;;
35917;SDS011;22011;59.912;30.300;2023-03-24T04:00:13;37.08;;;18.75;;
35917;SDS011;22011;59.912;30.300;2023-03-24T04:02:56;30.23;;;16.88;;
35917;SDS011;22011;59.912;30.300;2023-03-24T04:05:45;25.02;;;13.98;;
35917;SDS011;22011;59.912;30.300;2023-03-24T04:08:22;25.02;;;15.45;;
35917;SDS011;22011;59.912;30.300;2023-03-24T04:11:24;20.33;;;14.33;;
35917;SDS011;22011;59.912;30.300;2023-03-24T04:14:18;27.83;;;14.23;;
35917;SDS011;22011;59.912;30.300;2023-03-24T04:17:27;28.95;;;14.98;;
35917;SDS011;22011;59.912;30.300;2023-03-24T04:20:13;29.02;;;13.90;;
35917;SDS011;22011;59.912;30.300;2023-03-24T04:22:53;24.33;;;14.40;;
35917;SDS011;22011;59.912;30.300;2023-03-24T04:25:30;18.42;;;11.70;;
35917;SDS011;22011;59.912;30.300;2023-03-24T04:28:04;18.60;;;12.23;;
35917;SDS011;22011;59.912;30.300;2023-03-24T04:30:39;17.90;;;10.18;;
35917;SDS011;22011;59.912;30.300;2023-03-24T04:33:16;17.50;;;11.88;;
35917;SDS011;22011;59.912;30.300;2023-03-24T04:35:50;16.80;;;10.73;;
35917;SDS011;22011;59.912;30.300;2023-03-24T04:38:28;21.05;;;11.30;;
35917;SDS011;22011;59.912;30.300;2023-03-24T04:41:25;16.95;;;11.05;;
35917;SDS011;22011;59.912;30.300;2023-03-24T04:44:06;19.52;;;9.82;;
35917;SDS011;22011;59.912;30.300;2023-03-24T04:46:44;18.08;;;10.45;;
35917;SDS011;22011;59.912;30.300;2023-03-24T04:49:18;19.90;;;10.60;;
35917;SDS011;22011;59.912;30.300;2023-03-24T04:51:50;17.55;;;10.45;;
35917;SDS011;22011;59.912;30.300;2023-03-24T04:54:20;20.88;;;10.85;;
35917;SDS011;22011;59.912;30.300;2023-03-24T04:56:53;22.58;;;12.13;;
35917;SDS011;22011;59.912;30.300;2023-03-24T04:59:29;22.42;;;11.63;;
35917;SDS011;22011;59.912;30.300;2023-03-24T05:02:00;17.48;;;11.68;;
35917;SDS011;22011;59.912;30.300;2023-03-24T05:04:35;16.02;;;11.30;;
35917;SDS011;22011;59.912;30.300;2023-03-24T05:07:12;19.42;;;11.77;;
35917;SDS011;22011;59.912;30.300;2023-03-24T05:09:46;21.30;;;12.52;;
35917;SDS011;22011;59.912;30.300;2023-03-24T05:12:13;23.85;;;12.27;;
35917;SDS011;22011;59.912;30.300;2023-03-24T05:15:07;20.52;;;11.52;;
35917;SDS011;22011;59.912;30.300;2023-03-24T05:17:36;19.55;;;12.52;;
35917;SDS011;22011;59.912;30.300;2023-03-24T05:20:06;22.33;;;11.77;;
35917;SDS011;22011;59.912;30.300;2023-03-24T05:22:36;25.23;;;12.73;;
35917;SDS011;22011;59.912;30.300;2023-03-24T05:25:04;23.33;;;12.05;;
35917;SDS011;22011;59.912;30.300;2023-03-24T05:27:32;25.50;;;13.90;;
35917;SDS011;22011;59.912;30.300;2023-03-24T05:30:11;27.13;;;13.40;;
35917;SDS011;22011;59.912;30.300;2023-03-24T05:32:40;23.83;;;13.73;;
35917;SDS011;22011;59.912;30.300;2023-03-24T05:35:10;25.02;;;12.48;;
35917;SDS011;22011;59.912;30.300;2023-03-24T05:37:38;20.65;;;13.13;;
35917;SDS011;22011;59.912;30.300;2023-03-24T05:40:06;23.42;;;13.18;;
35917;SDS011;22011;59.912;30.300;2023-03-24T05:42:56;26.48;;;12.38;;
35917;SDS011;22011;59.912;30.300;2023-03-24T05:45:28;27.15;;;11.85;;
35917;SDS011;22011;59.912;30.300;2023-03-24T05:47:57;27.37;;;14.87;;
35917;SDS011;22011;59.912;30.300;2023-03-24T05:50:40;30.38;;;14.00;;
35917;SDS011;22011;59.912;30.300;2023-03-24T05:53:08;25.65;;;13.15;;
35917;SDS011;22011;59.912;30.300;2023-03-24T05:55:58;23.85;;;13.05;;
35917;SDS011;22011;59.912;30.300;2023-03-24T05:58:46;33.70;;;14.73;;
35917;SDS011;22011;59.912;30.300;2023-03-24T06:01:14;27.33;;;13.73;;
35917;SDS011;22011;59.912;30.300;2023-03-24T06:03:43;19.80;;;12.25;;
35917;SDS011;22011;59.912;30.300;2023-03-24T06:06:15;27.25;;;12.50;;
35917;SDS011;22011;59.912;30.300;2023-03-24T06:08:44;28.98;;;12.57;;
35917;SDS011;22011;59.912;30.300;2023-03-24T06:11:12;33.72;;;18.85;;
35917;SDS011;22011;59.912;30.300;2023-03-24T06:13:58;33.33;;;13.40;;
35917;SDS011;22011;59.912;30.300;2023-03-24T06:16:28;23.00;;;12.00;;
35917;SDS011;22011;59.912;30.300;2023-03-24T06:19:01;18.85;;;11.25;;
35917;SDS011;22011;59.912;30.300;2023-03-24T06:21:48;21.58;;;10.43;;
35917;SDS011;22011;59.912;30.300;2023-03-24T06:24:18;26.80;;;11.70;;
35917;SDS011;22011;59.912;30.300;2023-03-24T06:26:49;30.92;;;10.10;;
35917;SDS011;22011;59.912;30.300;2023-03-24T06:29:17;30.15;;;11.23;;
35917;SDS011;22011;59.912;30.300;2023-03-24T06:31:47;22.70;;;10.85;;
35917;SDS011;22011;59.912;30.300;2023-03-24T06:34:15;22.35;;;10.57;;
35917;SDS011;22011;59.912;30.300;2023-03-24T06:36:51;23.35;;;11.23;;
35917;SDS011;22011;59.912;30.300;2023-03-24T06:39:20;16.38;;;11.13;;
35917;SDS011;22011;59.912;30.300;2023-03-24T06:41:49;19.00;;;10.80;;
35917;SDS011;22011;59.912;30.300;2023-03-24T06:44:17;19.95;;;11.38;;
35917;SDS011;22011;59.912;30.300;2023-03-24T06:46:45;24.58;;;12.15;;
35917;SDS011;22011;59.912;30.300;2023-03-24T06:49:14;22.00;;;11.93;;
35917;SDS011;22011;59.912;30.300;2023-03-24T06:51:42;29.90;;;13.00;;
35917;SDS011;22011;59.912;30.300;2023-03-24T06:54:12;24.53;;;12.23;;
35917;SDS011;22011;59.912;30.300;2023-03-24T06:56:41;27.77;;;13.43;;
35917;SDS011;22011;59.912;30.300;2023-03-24T06:59:09;29.17;;;12.18;;
35917;SDS011;22011;59.912;30.300;2023-03-24T07:01:37;23.63;;;12.88;;
35917;SDS011;22011;59.912;30.300;2023-03-24T07:04:19;23.70;;;12.10;;
35917;SDS011;22011;59.912;30.300;2023-03-24T07:06:50;33.35;;;13.35;;
35917;SDS011;22011;59.912;30.300;2023-03-24T07:09:21;29.13;;;13.47;;
35917;SDS011;22011;59.912;30.300;2023-03-24T07:11:49;22.52;;;10.85;;
35917;SDS011;22011;59.912;30.300;2023-03-24T07:14:17;22.05;;;11.13;;
35917;SDS011;22011;59.912;30.300;2023-03-24T07:16:47;28.70;;;12.88;;
35917;SDS011;22011;59.912;30.300;2023-03-24T07:19:32;25.15;;;12.27;;
35917;SDS011;22011;59.912;30.300;2023-03-24T07:22:20;20.58;;;11.25;;
35917;SDS011;22011;59.912;30.300;2023-03-24T07:25:09;17.42;;;10.88;;
35917;SDS011;22011;59.912;30.300;2023-03-24T07:27:52;19.20;;;11.73;;
35917;SDS011;22011;59.912;30.300;2023-03-24T07:30:21;27.45;;;12.13;;
35917;SDS011;22011;59.912;30.300;2023-03-24T07:32:50;21.55;;;12.55;;
35917;SDS011;22011;59.912;30.300;2023-03-24T07:35:20;17.80;;;10.48;;
35917;SDS011;22011;59.912;30.300;2023-03-24T07:37:48;24.98;;;11.52;;
35917;SDS011;22011;59.912;30.300;2023-03-24T07:40:17;18.95;;;11.35;;
35917;SDS011;22011;59.912;30.300;2023-03-24T07:42:46;15.88;;;9.65;;
35917;SDS011;22011;59.912;30.300;2023-03-24T07:45:32;18.33;;;10.38;;
35917;SDS011;22011;59.912;30.300;2023-03-24T07:48:00;15.98;;;9.15;;
35917;SDS011;22011;59.912;30.300;2023-03-24T07:50:30;14.18;;;9.25;;
35917;SDS011;22011;59.912;30.300;2023-03-24T07:53:00;18.92;;;9.63;;
35917;SDS011;22011;59.912;30.300;2023-03-24T07:55:29;20.23;;;9.48;;
35917;SDS011;22011;59.912;30.300;2023-03-24T07:58:01;17.58;;;9.75;;
35917;SDS011;22011;59.912;30.300;2023-03-24T08:00:29;21.85;;;10.85;;
35917;SDS011;22011;59.912;30.300;2023-03-24T08:03:11;21.13;;;10.43;;
35917;SDS011;22011;59.912;30.300;2023-03-24T08:06:06;26.95;;;11.57;;
35917;SDS011;22011;59.912;30.300;2023-03-24T08:08:43;28.23;;;13.88;;
35917;SDS011;22011;59.912;30.300;2023-03-24T08:11:12;24.13;;;13.57;;
35917;SDS011;22011;59.912;30.300;2023-03-24T08:13:40;22.92;;;14.20;;
35917;SDS011;22011;59.912;30.300;2023-03-24T08:16:07;31.58;;;13.80;;
35917;SDS011;22011;59.912;30.300;2023-03-24T08:18:35;25.95;;;13.73;;
35917;SDS011;22011;59.912;30.300;2023-03-24T08:21:03;30.55;;;13.55;;
35917;SDS011;22011;59.912;30.300;2023-03-24T08:23:31;38.58;;;14.25;;
35917;SDS011;22011;59.912;30.300;2023-03-24T08:25:58;32.40;;;13.77;;
35917;SDS011;22011;59.912;30.300;2023-03-24T08:28:28;33.38;;;14.27;;
35917;SDS011;22011;59.912;30.300;2023-03-24T08:30:56;35.53;;;12.95;;
35917;SDS011;22011;59.912;30.300;2023-03-24T08:33:23;34.50;;;13.50;;
35917;SDS011;22011;59.912;30.300;2023-03-24T08:35:52;36.60;;;13.82;;
35917;SDS011;22011;59.912;30.300;2023-03-24T08:38:22;31.13;;;14.77;;
35917;SDS011;22011;59.912;30.300;2023-03-24T08:40:55;30.95;;;13.73;;
35917;SDS011;22011;59.912;30.300;2023-03-24T08:43:27;34.33;;;14.63;;
35917;SDS011;22011;59.912;30.300;2023-03-24T08:45:56;29.92;;;14.07;;
35917;SDS011;22011;59.912;30.300;2023-03-24T08:48:24;24.85;;;14.25;;
35917;SDS011;22011;59.912;30.300;2023-03-24T08:50:52;36.00;;;16.15;;
35917;SDS011;22011;59.912;30.300;2023-03-24T08:53:20;28.58;;;16.35;;
35917;SDS011;22011;59.912;30.300;2023-03-24T08:55:48;37.50;;;17.27;;
35917;SDS011;22011;59.912;30.300;2023-03-24T08:58:16;37.42;;;17.75;;
35917;SDS011;22011;59.912;30.300;2023-03-24T09:00:47;41.90;;;17.77;;
35917;SDS011;22011;59.912;30.300;2023-03-24T09:03:15;23.80;;;16.25;;
35917;SDS011;22011;59.912;30.300;2023-03-24T09:05:47;29.60;;;14.65;;
35917;SDS011;22011;59.912;30.300;2023-03-24T09:08:15;24.00;;;13.88;;
35917;SDS011;22011;59.912;30.300;2023-03-24T09:10:44;22.30;;;12.70;;
35917;SDS011;22011;59.912;30.300;2023-03-24T09:13:12;20.42;;;13.23;;
35917;SDS011;22011;59.912;30.300;2023-03-24T09:15:44;21.08;;;12.98;;
35917;SDS011;22011;59.912;30.300;2023-03-24T09:18:13;35.22;;;13.43;;
35917;SDS011;22011;59.912;30.300;2023-03-24T09:20:42;26.13;;;12.57;;
35917;SDS011;22011;59.912;30.300;2023-03-24T09:23:09;21.20;;;12.32;;
35917;SDS011;22011;59.912;30.300;2023-03-24T09:25:37;25.55;;;13.20;;
35917;SDS011;22011;59.912;30.300;2023-03-24T09:28:05;21.67;;;13.32;;
35917;SDS011;22011;59.912;30.300;2023-03-24T09:30:33;21.75;;;13.80;;
35917;SDS011;22011;59.912;30.300;2023-03-24T09:33:01;21.23;;;13.38;;
35917;SDS011;22011;59.912;30.300;2023-03-24T09:35:31;19.02;;;12.25;;
35917;SDS011;22011;59.912;30.300;2023-03-24T09:37:58;19.77;;;13.55;;
35917;SDS011;22011;59.912;30.300;2023-03-24T09:40:27;24.95;;;13.85;;
35917;SDS011;22011;59.912;30.300;2023-03-24T09:42:56;20.45;;;13.55;;
35917;SDS011;22011;59.912;30.300;2023-03-24T09:45:29;24.92;;;14.73;;
35917;SDS011;22011;59.912;30.300;2023-03-24T09:48:03;21.88;;;13.57;;
35917;SDS011;22011;59.912;30.300;2023-03-24T09:50:39;17.80;;;12.38;;
35917;SDS011;22011;59.912;30.300;2023-03-24T09:53:14;21.20;;;13.57;;
35917;SDS011;22011;59.912;30.300;2023-03-24T09:55:51;18.15;;;10.25;;
35917;SDS011;22011;59.912;30.300;2023-03-24T09:58:18;15.20;;;10.93;;
35917;SDS011;22011;59.912;30.300;2023-03-24T10:00:46;16.38;;;10.18;;
35917;SDS011;22011;59.912;30.300;2023-03-24T10:03:16;15.88;;;10.27;;
35917;SDS011;22011;59.912;30.300;2023-03-24T10:05:49;17.90;;;10.77;;
35917;SDS011;22011;59.912;30.300;2023-03-24T10:08:24;18.10;;;12.32;;
35917;SDS011;22011;59.912;30.300;2023-03-24T10:10:56;17.15;;;10.52;;
35917;SDS011;22011;59.912;30.300;2023-03-24T10:13:29;15.15;;;10.02;;
35917;SDS011;22011;59.912;30.300;2023-03-24T10:16:06;12.30;;;8.63;;
35917;SDS011;22011;59.912;30.300;2023-03-24T10:18:42;22.55;;;9.20;;
35917;SDS011;22011;59.912;30.300;2023-03-24T10:21:20;13.00;;;8.25;;
35917;SDS011;22011;59.912;30.300;2023-03-24T10:23:53;13.25;;;8.48;;
35917;SDS011;22011;59.912;30.300;2023-03-24T10:26:30;14.38;;;8.95;;
35917;SDS011;22011;59.912;30.300;2023-03-24T10:29:16;12.85;;;8.50;;
35917;SDS011;22011;59.912;30.300;2023-03-24T10:31:50;14.05;;;8.32;;
35917;SDS011;22011;59.912;30.300;2023-03-24T10:34:20;14.32;;;9.73;;
35917;SDS011;22011;59.912;30.300;2023-03-24T10:36:51;12.93;;;8.10;;
35917;SDS011;22011;59.912;30.300;2023-03-24T10:39:20;12.40;;;8.75;;
35917;SDS011;22011;59.912;30.300;2023-03-24T10:41:48;12.20;;;8.70;;
35917;SDS011;22011;59.912;30.300;2023-03-24T10:44:17;9.18;;;7.25;;
35917;SDS011;22011;59.912;30.300;2023-03-24T10:46:47;11.27;;;7.05;;
35917;SDS011;22011;59.912;30.300;2023-03-24T10:49:18;9.77;;;6.60;;
35917;SDS011;22011;59.912;30.300;2023-03-24T10:51:47;11.57;;;7.25;;
35917;SDS011;22011;59.912;30.300;2023-03-24T10:54:18;13.27;;;7.50;;
35917;SDS011;22011;59.912;30.300;2023-03-24T10:56:47;9.15;;;6.60;;
35917;SDS011;22011;59.912;30.300;2023-03-24T10:59:22;8.90;;;6.45;;
35917;SDS011;22011;59.912;30.300;2023-03-24T11:02:00;9.82;;;6.40;;
35917;SDS011;22011;59.912;30.300;2023-03-24T11:04:48;11.93;;;7.05;;
35917;SDS011;22011;59.912;30.300;2023-03-24T11:07:21;8.52;;;5.95;;
35917;SDS011;22011;59.912;30.300;2023-03-24T11:09:56;9.10;;;6.35;;
35917;SDS011;22011;59.912;30.300;2023-03-24T11:12:28;10.93;;;6.22;;
35917;SDS011;22011;59.912;30.300;2023-03-24T11:17:46;8.05;;;5.78;;
35917;SDS011;22011;59.912;30.300;2023-03-24T11:20:18;14.95;;;6.95;;
35917;SDS011;22011;59.912;30.300;2023-03-24T11:22:57;9.82;;;5.55;;
35917;SDS011;22011;59.912;30.300;2023-03-24T11:25:30;9.52;;;5.85;;
35917;SDS011;22011;59.912;30.300;2023-03-24T11:28:00;10.07;;;6.10;;
35917;SDS011;22011;59.912;30.300;2023-03-24T11:30:32;8.68;;;5.90;;
35917;SDS011;22011;59.912;30.300;2023-03-24T11:33:01;10.15;;;5.38;;
35917;SDS011;22011;59.912;30.300;2023-03-24T11:35:29;6.65;;;5.32;;
35917;SDS011;22011;59.912;30.300;2023-03-24T11:38:02;6.22;;;4.80;;
35917;SDS011;22011;59.912;30.300;2023-03-24T11:40:33;7.75;;;5.70;;
35917;SDS011;22011;59.912;30.300;2023-03-24T11:43:01;7.43;;;4.53;;
35917;SDS011;22011;59.912;30.300;2023-03-24T11:45:34;8.90;;;5.07;;
35917;SDS011;22011;59.912;30.300;2023-03-24T11:48:05;8.73;;;5.10;;
35917;SDS011;22011;59.912;30.300;2023-03-24T11:50:44;10.88;;;4.22;;
35917;SDS011;22011;59.912;30.300;2023-03-24T11:53:14;7.00;;;3.80;;
35917;SDS011;22011;59.912;30.300;2023-03-24T11:55:48;7.00;;;4.38;;
35917;SDS011;22011;59.912;30.300;2023-03-24T11:58:26;11.00;;;4.32;;
35917;SDS011;22011;59.912;30.300;2023-03-24T12:01:01;9.90;;;4.90;;
35917;SDS011;22011;59.912;30.300;2023-03-24T12:06:24;8.85;;;4.38;;
35917;SDS011;22011;59.912;30.300;2023-03-24T12:09:02;8.98;;;4.30;;
35917;SDS011;22011;59.912;30.300;2023-03-24T12:11:45;10.85;;;5.40;;
35917;SDS011;22011;59.912;30.300;2023-03-24T12:14:22;8.63;;;4.80;;
35917;SDS011;22011;59.912;30.300;2023-03-24T12:17:00;6.35;;;4.47;;
35917;SDS011;22011;59.912;30.300;2023-03-24T12:19:52;7.35;;;5.32;;
35917;SDS011;22011;59.912;30.300;2023-03-24T12:22:38;7.07;;;5.65;;
35917;SDS011;22011;59.912;30.300;2023-03-24T12:25:19;7.80;;;4.93;;
35917;SDS011;22011;59.912;30.300;2023-03-24T12:27:59;7.70;;;5.35;;
35917;SDS011;22011;59.912;30.300;2023-03-24T12:30:40;8.23;;;5.45;;
35917;SDS011;22011;59.912;30.300;2023-03-24T12:33:20;12.02;;;6.03;;
35917;SDS011;22011;59.912;30.300;2023-03-24T12:36:08;13.90;;;6.65;;
35917;SDS011;22011;59.912;30.300;2023-03-24T12:38:51;9.82;;;5.40;;
35917;SDS011;22011;59.912;30.300;2023-03-24T12:41:36;9.48;;;6.07;;
35917;SDS011;22011;59.912;30.300;2023-03-24T12:44:19;10.52;;;6.30;;
35917;SDS011;22011;59.912;30.300;2023-03-24T12:47:01;9.30;;;6.40;;
35917;SDS011;22011;59.912;30.300;2023-03-24T12:49:45;10.90;;;6.00;;
35917;SDS011;22011;59.912;30.300;2023-03-24T12:52:33;10.65;;;5.88;;
35917;SDS011;22011;59.912;30.300;2023-03-24T12:55:13;9.95;;;5.60;;
35917;SDS011;22011;59.912;30.300;2023-03-24T12:57:44;10.27;;;5.28;;
35917;SDS011;22011;59.912;30.300;2023-03-24T13:00:18;7.35;;;4.85;;
35917;SDS011;22011;59.912;30.300;2023-03-24T13:02:52;7.20;;;4.80;;
35917;SDS011;22011;59.912;30.300;2023-03-24T13:05:26;7.85;;;5.40;;
35917;SDS011;22011;59.912;30.300;2023-03-24T13:07:58;11.43;;;5.25;;
35917;SDS011;22011;59.912;30.300;2023-03-24T13:10:31;8.50;;;5.18;;
35917;SDS011;22011;59.912;30.300;2023-03-24T13:13:07;7.47;;;5.32;;
35917;SDS011;22011;59.912;30.300;2023-03-24T13:15:40;7.55;;;5.78;;
35917;SDS011;22011;59.912;30.300;2023-03-24T13:18:17;10.15;;;5.22;;
35917;SDS011;22011;59.912;30.300;2023-03-24T13:20:54;7.28;;;4.90;;
35917;SDS011;22011;59.912;30.300;2023-03-24T13:23:35;11.07;;;5.22;;
35917;SDS011;22011;59.912;30.300;2023-03-24T13:26:10;11.02;;;6.57;;
35917;SDS011;22011;59.912;30.300;2023-03-24T13:28:51;10.95;;;6.65;;
35917;SDS011;22011;59.912;30.300;2023-03-24T13:31:32;9.35;;;6.30;;
35917;SDS011;22011;59.912;30.300;2023-03-24T13:34:03;9.05;;;6.60;;
35917;SDS011;22011;59.912;30.300;2023-03-24T13:36:39;8.13;;;5.80;;
35917;SDS011;22011;59.912;30.300;2023-03-24T13:39:12;5.82;;;4.50;;
35917;SDS011;22011;59.912;30.300;2023-03-24T13:41:44;6.85;;;4.78;;
35917;SDS011;22011;59.912;30.300;2023-03-24T13:44:16;9.48;;;4.63;;
35917;SDS011;22011;59.912;30.300;2023-03-24T13:47:00;25.42;;;7.90;;
35917;SDS011;22011;59.912;30.300;2023-03-24T13:49:31;16.98;;;5.93;;
35917;SDS011;22011;59.912;30.300;2023-03-24T13:52:01;7.78;;;5.38;;
35917;SDS011;22011;59.912;30.300;2023-03-24T13:54:31;12.32;;;5.55;;
35917;SDS011;22011;59.912;30.300;2023-03-24T13:57:03;8.93;;;5.35;;
35917;SDS011;22011;59.912;30.300;2023-03-24T13:59:38;6.78;;;4.55;;
35917;SDS011;22011;59.912;30.300;2023-03-24T14:08:33;10.98;;;5.63;;
35917;SDS011;22011;59.912;30.300;2023-03-24T14:11:09;10.15;;;5.70;;
35917;SDS011;22011;59.912;30.300;2023-03-24T14:13:51;9.43;;;5.63;;
35917;SDS011;22011;59.912;30.300;2023-03-24T14:16:35;7.47;;;4.32;;
35917;SDS011;22011;59.912;30.300;2023-03-24T14:19:20;7.85;;;4.93;;
35917;SDS011;22011;59.912;30.300;2023-03-24T14:21:51;7.53;;;4.90;;
35917;SDS011;22011;59.912;30.300;2023-03-24T14:24:24;12.93;;;5.18;;
35917;SDS011;22011;59.912;30.300;2023-03-24T14:26:54;10.98;;;5.00;;
35917;SDS011;22011;59.912;30.300;2023-03-24T14:29:32;7.57;;;4.90;;
35917;SDS011;22011;59.912;30.300;2023-03-24T14:32:04;10.02;;;5.35;;
35917;SDS011;22011;59.912;30.300;2023-03-24T14:34:32;7.93;;;5.43;;
35917;SDS011;22011;59.912;30.300;2023-03-24T14:37:03;7.40;;;4.68;;
35917;SDS011;22011;59.912;30.300;2023-03-24T14:39:35;7.10;;;5.40;;
35917;SDS011;22011;59.912;30.300;2023-03-24T14:42:26;9.70;;;5.78;;
35917;SDS011;22011;59.912;30.300;2023-03-24T14:54:02;9.40;;;6.07;;
35917;SDS011;22011;59.912;30.300;2023-03-24T14:56:33;10.07;;;6.18;;
35917;SDS011;22011;59.912;30.300;2023-03-24T14:59:06;11.70;;;7.20;;
35917;SDS011;22011;59.912;30.300;2023-03-24T15:01:37;9.98;;;6.35;;
35917;SDS011;22011;59.912;30.300;2023-03-24T15:04:13;11.70;;;6.28;;
35917;SDS011;22011;59.912;30.300;2023-03-24T15:06:41;10.50;;;5.82;;
35917;SDS011;22011;59.912;30.300;2023-03-24T15:11:40;12.10;;;6.38;;
35917;SDS011;22011;59.912;30.300;2023-03-24T15:14:20;8.00;;;5.30;;
35917;SDS011;22011;59.912;30.300;2023-03-24T15:16:50;9.05;;;4.57;;
35917;SDS011;22011;59.912;30.300;2023-03-24T15:19:24;8.32;;;4.35;;
35917;SDS011;22011;59.912;30.300;2023-03-24T15:21:58;6.13;;;4.72;;
35917;SDS011;22011;59.912;30.300;2023-03-24T15:24:32;12.90;;;5.80;;
35917;SDS011;22011;59.912;30.300;2023-03-24T15:29:55;16.13;;;9.20;;
35917;SDS011;22011;59.912;30.300;2023-03-24T15:32:24;20.60;;;10.25;;
35917;SDS011;22011;59.912;30.300;2023-03-24T15:34:56;14.82;;;8.30;;
35917;SDS011;22011;59.912;30.300;2023-03-24T15:37:30;16.17;;;7.00;;
35917;SDS011;22011;59.912;30.300;2023-03-24T15:40:01;12.05;;;5.47;;
35917;SDS011;22011;59.912;30.300;2023-03-24T15:42:30;12.25;;;5.35;;